Time;durP1;ratioP1;P1;durP2;ratioP2;P2;SDS_P1;SDS_P2;PMS_P1;PMS_P2;Temp;Humidity;BMP_temperature;BMP_pressure;BME280_temperature;BME280_humidity;BME280_pressure;Samples;Min_cycle;Max_cycle;Signal;HPM_P1;HPM_P2
2021/04/14 00:00:37;;;;;;;7.77;4.77;;;;;;;5.60;63.37;102570.78;5018665;28;20634;-75
2021/04/14 00:03:06;;;;;;;12.67;4.73;;;;;;;5.25;65.54;102572.16;5019289;28;20163;-73
2021/04/14 00:05:35;;;;;;;13.63;5.20;;;;;;;5.23;64.99;102573.75;5018658;28;20417;-75
2021/04/14 00:08:00;;;;;;;13.93;4.80;;;;;;;5.31;64.44;102567.34;5018550;28;20632;-73
2021/04/14 00:10:28;;;;;;;11.30;5.13;;;;;;;5.15;64.71;102568.09;5018185;28;20445;-74
2021/04/14 00:12:53;;;;;;;10.97;4.23;;;;;;;5.15;65.05;102567.22;5018665;28;20224;-73
2021/04/14 00:15:23;;;;;;;20.27;4.80;;;;;;;4.97;65.50;102565.28;5018488;28;20512;-74
2021/04/14 00:17:48;;;;;;;8.07;4.53;;;;;;;4.86;65.86;102572.38;5019050;28;20207;-72
2021/04/14 00:20:14;;;;;;;16.73;5.37;;;;;;;5.04;65.72;102567.44;5018447;28;20681;-73
2021/04/14 00:22:40;;;;;;;9.97;5.20;;;;;;;4.97;66.25;102565.28;5001419;28;20171;-73
2021/04/14 00:25:08;;;;;;;11.30;4.97;;;;;;;5.03;66.25;102562.16;5017539;28;20553;-74
2021/04/14 00:27:37;;;;;;;8.90;4.40;;;;;;;4.89;67.49;102566.50;5018287;28;20191;-73
2021/04/14 00:30:06;;;;;;;16.03;5.10;;;;;;;4.74;67.81;102570.72;5018957;28;20855;-72
2021/04/14 00:32:31;;;;;;;12.50;4.50;;;;;;;4.76;68.12;102563.94;5018254;28;20418;-74
2021/04/14 00:34:57;;;;;;;10.30;4.97;;;;;;;4.75;67.41;102568.22;5018274;28;20676;-73
2021/04/14 00:37:22;;;;;;;9.27;5.50;;;;;;;4.69;68.40;102567.81;5018673;28;20191;-73
2021/04/14 00:39:48;;;;;;;8.93;4.83;;;;;;;4.62;68.02;102561.38;5018190;28;20183;-73
2021/04/14 00:42:13;;;;;;;16.07;6.93;;;;;;;4.67;68.33;102557.41;5017633;28;20241;-72
2021/04/14 00:44:39;;;;;;;6.10;3.97;;;;;;;4.21;68.97;102559.63;5018808;28;20185;-74
2021/04/14 00:47:04;;;;;;;10.13;5.50;;;;;;;4.42;68.58;102560.09;5018424;28;20175;-73
2021/04/14 00:49:29;;;;;;;9.17;4.30;;;;;;;4.44;68.93;102563.69;5022876;28;20636;-72
2021/04/14 00:51:55;;;;;;;11.97;4.30;;;;;;;4.33;68.84;102556.91;5018538;28;20178;-72
2021/04/14 00:54:20;;;;;;;13.53;4.33;;;;;;;4.73;67.81;102551.72;5018217;28;20595;-73
2021/04/14 00:56:45;;;;;;;10.40;4.67;;;;;;;4.49;67.92;102569.13;5018174;28;20206;-73
2021/04/14 00:59:11;;;;;;;6.53;4.37;;;;;;;4.53;67.73;102566.88;5018434;28;20178;-73
2021/04/14 01:01:36;;;;;;;13.43;4.53;;;;;;;4.41;69.15;102573.81;5019847;28;20237;-73
2021/04/14 01:04:01;;;;;;;11.83;4.50;;;;;;;4.65;68.40;102568.44;5021974;28;20217;-73
2021/04/14 01:06:28;;;;;;;9.30;4.87;;;;;;;4.53;68.02;102571.13;5022346;28;20183;-73
2021/04/14 01:08:54;;;;;;;10.40;4.63;;;;;;;4.75;67.27;102573.38;5021909;28;20201;-73
2021/04/14 01:11:21;;;;;;;9.03;4.53;;;;;;;4.78;67.54;102572.69;5021633;28;20425;-73
2021/04/14 01:13:47;;;;;;;10.60;4.40;;;;;;;4.82;67.49;102569.50;5005184;28;20221;-74
2021/04/14 01:16:12;;;;;;;13.47;5.40;;;;;;;4.84;66.90;102565.31;5021859;28;20544;-75
2021/04/14 01:18:39;;;;;;;13.33;4.83;;;;;;;4.96;66.76;102570.34;5022307;28;20179;-73
2021/04/14 01:21:07;;;;;;;9.00;4.47;;;;;;;4.77;67.41;102574.38;5022102;28;20174;-73
2021/04/14 01:23:32;;;;;;;12.67;5.50;;;;;;;4.67;67.28;102583.22;5021695;28;20443;-72
2021/04/14 01:25:59;;;;;;;16.50;4.80;;;;;;;4.66;68.11;102575.38;5021785;28;20417;-72
2021/04/14 01:28:29;;;;;;;8.30;4.60;;;;;;;4.44;68.53;102576.59;5022145;28;20205;-73
2021/04/14 01:30:55;;;;;;;10.87;5.00;;;;;;;4.55;67.73;102575.59;5021477;28;20659;-72
2021/04/14 01:33:22;;;;;;;8.63;4.30;;;;;;;4.38;68.35;102578.78;5021518;28;20705;-73
2021/04/14 01:35:48;;;;;;;7.63;4.43;;;;;;;4.60;67.64;102577.56;5021820;28;20674;-73
2021/04/14 01:38:13;;;;;;;10.43;4.60;;;;;;;4.52;68.99;102582.25;5021369;28;20542;-73
2021/04/14 01:40:40;;;;;;;9.97;5.10;;;;;;;4.46;68.51;102577.56;5021175;28;20439;-73
2021/04/14 01:43:06;;;;;;;10.67;5.03;;;;;;;4.45;68.18;102583.56;5021667;28;20183;-73
2021/04/14 01:45:38;;;;;;;12.33;5.17;;;;;;;4.30;68.64;102580.88;5021315;28;20440;-74
2021/04/14 01:48:04;;;;;;;10.00;5.13;;;;;;;4.14;68.77;102573.81;5004242;28;20210;-74
2021/04/14 01:50:29;;;;;;;11.63;5.17;;;;;;;4.45;68.47;102573.22;5021461;28;20410;-73
2021/04/14 01:52:55;;;;;;;8.90;5.30;;;;;;;4.38;68.13;102581.34;5021112;28;20475;-73
2021/04/14 01:55:22;;;;;;;13.80;5.70;;;;;;;4.33;67.83;102577.56;5004090;28;20182;-75
2021/04/14 01:57:48;;;;;;;10.73;5.53;;;;;;;4.29;68.35;102580.75;5021417;28;20473;-74
2021/04/14 02:00:44;;;;;;;12.47;4.70;;;;;;;4.45;67.92;102577.47;5020775;28;20496;-73
2021/04/14 02:03:10;;;;;;;7.07;5.40;;;;;;;4.41;68.02;102580.66;5020980;28;20734;-72
2021/04/14 02:05:36;;;;;;;9.03;5.03;;;;;;;4.58;67.45;102580.06;5020799;28;20445;-73
2021/04/14 02:08:01;;;;;;;12.83;5.40;;;;;;;4.63;66.64;102576.09;5020820;28;20457;-73
2021/04/14 02:10:29;;;;;;;9.10;5.37;;;;;;;4.38;67.10;102571.94;5020900;28;20181;-74
2021/04/14 02:12:56;;;;;;;9.33;4.90;;;;;;;4.57;66.67;102573.09;5019736;28;20171;-74
2021/04/14 02:15:25;;;;;;;12.07;5.00;;;;;;;4.45;67.38;102569.72;5020545;28;20413;-74
2021/04/14 02:17:51;;;;;;;12.10;5.10;;;;;;;4.30;67.13;102572.22;5020774;28;20826;-73
2021/04/14 02:20:16;;;;;;;9.80;5.10;;;;;;;4.21;68.00;102569.94;5020306;28;20556;-74
2021/04/14 02:22:42;;;;;;;9.00;5.20;;;;;;;4.27;68.17;102567.75;5003378;28;20445;-74
2021/04/14 02:25:10;;;;;;;13.70;5.90;;;;;;;3.99;69.21;102565.06;5020212;28;20241;-73
2021/04/14 02:27:35;;;;;;;11.03;4.97;;;;;;;4.30;68.37;102556.72;5020481;28;20198;-73
2021/04/14 02:30:02;;;;;;;9.77;4.90;;;;;;;3.93;69.39;102554.34;5020762;28;20517;-73
2021/04/14 02:32:27;;;;;;;9.33;4.70;;;;;;;4.35;68.23;102556.22;5020425;28;20182;-72
2021/04/14 02:34:53;;;;;;;7.13;4.93;;;;;;;4.46;67.16;102551.75;5020383;28;20804;-72
2021/04/14 02:37:18;;;;;;;9.17;5.60;;;;;;;4.78;66.37;102547.75;5020685;28;20198;-73
2021/04/14 02:39:43;;;;;;;12.40;5.87;;;;;;;4.63;66.96;102555.41;5020463;28;20442;-72
2021/04/14 02:42:09;;;;;;;9.27;5.10;;;;;;;4.43;67.33;102548.09;5019969;28;20199;-72
2021/04/14 02:44:34;;;;;;;13.60;5.20;;;;;;;4.55;66.73;102547.16;5022697;28;20209;-73
2021/04/14 02:47:00;;;;;;;9.80;5.50;;;;;;;4.13;69.15;102558.22;5024401;28;20424;-73
2021/04/14 02:49:25;;;;;;;9.97;5.20;;;;;;;4.10;69.15;102556.34;5020083;28;20183;-73
2021/04/14 02:51:51;;;;;;;12.10;5.83;;;;;;;4.28;67.88;102548.88;5020334;28;20174;-72
2021/04/14 02:54:17;;;;;;;9.17;5.00;;;;;;;4.36;68.56;102552.84;5019986;28;20174;-72
2021/04/14 02:56:42;;;;;;;10.07;5.63;;;;;;;4.44;68.02;102545.63;5020002;28;20488;-73
2021/04/14 02:59:08;;;;;;;13.83;5.97;;;;;;;4.15;69.31;102548.88;5020414;28;20783;-72
2021/04/14 03:01:33;;;;;;;11.03;4.87;;;;;;;4.12;69.90;102552.16;5019720;28;20197;-71
2021/04/14 03:03:59;;;;;;;6.80;5.07;;;;;;;3.99;69.55;102545.31;5019134;28;20175;-72
2021/04/14 03:06:24;;;;;;;10.30;4.93;;;;;;;4.32;69.08;102548.28;5020367;28;20242;-72
2021/04/14 03:08:49;;;;;;;9.90;5.50;;;;;;;4.33;69.01;102552.66;5019800;28;20178;-72
2021/04/14 03:11:15;;;;;;;11.33;6.27;;;;;;;4.27;68.61;102551.38;5019659;28;20170;-72
2021/04/14 03:13:40;;;;;;;10.20;5.80;;;;;;;4.52;67.84;102543.53;5019945;28;20174;-72
2021/04/14 03:16:06;;;;;;;12.00;5.80;;;;;;;4.60;67.25;102547.47;5019472;28;20175;-72
2021/04/14 03:18:31;;;;;;;13.57;6.57;;;;;;;4.64;66.33;102543.38;5019545;28;20186;-73
2021/04/14 03:20:56;;;;;;;8.90;5.20;;;;;;;4.32;68.24;102547.41;5019959;28;20200;-74
2021/04/14 03:23:22;;;;;;;11.10;6.37;;;;;;;4.63;67.81;102546.78;5019422;28;20477;-72
2021/04/14 03:25:48;;;;;;;10.27;6.50;;;;;;;4.39;67.69;102545.31;5019384;28;20277;-73
2021/04/14 03:28:13;;;;;;;10.93;5.97;;;;;;;4.20;68.75;102545.81;5019920;28;20205;-72
2021/04/14 03:30:39;;;;;;;10.03;5.50;;;;;;;4.00;70.73;102541.91;5019275;28;20167;-72
2021/04/14 03:33:05;;;;;;;10.90;5.90;;;;;;;4.05;70.33;102548.28;5019304;28;20183;-71
2021/04/14 03:35:30;;;;;;;9.53;5.33;;;;;;;4.08;70.36;102547.59;5019673;28;20420;-71
2021/04/14 03:37:56;;;;;;;7.27;4.67;;;;;;;3.92;70.59;102543.09;5019236;28;20202;-71
2021/04/14 03:40:22;;;;;;;8.50;5.10;;;;;;;4.20;69.20;102538.06;5002105;28;20190;-72
2021/04/14 03:42:47;;;;;;;8.33;5.60;;;;;;;3.86;70.54;102541.03;5019565;28;20834;-71
2021/04/14 03:45:18;;;;;;;8.00;5.47;;;;;;;3.90;71.13;102539.56;5019077;28;20174;-73
2021/04/14 03:47:44;;;;;;;10.17;5.30;;;;;;;3.85;70.98;102544.38;5019134;28;20174;-72
2021/04/14 03:50:12;;;;;;;10.80;5.60;;;;;;;3.92;70.95;102540.53;5019480;28;20416;-71
2021/04/14 03:52:38;;;;;;;8.63;6.10;;;;;;;4.00;70.74;102541.91;5001864;28;20175;-72
2021/04/14 03:55:06;;;;;;;13.20;4.90;;;;;;;4.09;70.05;102540.75;5018957;28;20658;-74
2021/04/14 03:57:31;;;;;;;10.53;5.60;;;;;;;4.44;68.57;102544.69;5019570;28;20476;-73
2021/04/14 03:59:56;;;;;;;9.70;5.10;;;;;;;4.00;69.28;102547.09;5018892;28;20418;-71
2021/04/14 04:02:21;;;;;;;12.13;5.90;;;;;;;4.11;69.93;102542.63;5019037;28;20436;-73
2021/04/14 04:04:47;;;;;;;13.80;5.17;;;;;;;4.35;68.48;102539.84;5019217;28;20222;-73
2021/04/14 04:07:12;;;;;;;12.67;6.23;;;;;;;4.22;68.67;102541.66;5018810;28;20182;-73
2021/04/14 04:09:37;;;;;;;12.70;5.60;;;;;;;4.00;69.62;102533.28;5001499;28;20175;-74
2021/04/14 04:12:07;;;;;;;10.60;5.37;;;;;;;4.30;68.90;102551.56;5019009;28;20171;-72
2021/04/14 04:14:34;;;;;;;7.63;5.23;;;;;;;4.06;69.69;102549.19;5018699;28;20489;-72
2021/04/14 04:16:59;;;;;;;10.00;5.43;;;;;;;4.25;68.32;102548.72;5018481;28;20500;-73
2021/04/14 04:19:25;;;;;;;8.03;4.83;;;;;;;4.36;68.08;102547.69;5019003;28;20418;-73
2021/04/14 04:21:50;;;;;;;14.33;5.33;;;;;;;4.09;68.10;102548.50;5018316;28;20194;-73
2021/04/14 04:24:15;;;;;;;42.37;23.73;;;;;;;4.44;68.70;102549.88;5018192;28;20478;-73
2021/04/14 04:26:41;;;;;;;14.67;7.20;;;;;;;4.48;67.08;102550.19;5018012;28;20171;-73
2021/04/14 04:29:06;;;;;;;11.30;6.40;;;;;;;4.31;68.06;102556.81;5018230;28;20175;-73
2021/04/14 04:31:31;;;;;;;7.10;4.83;;;;;;;4.65;66.83;102545.19;5018119;28;20516;-73
2021/04/14 04:33:57;;;;;;;15.20;9.47;;;;;;;4.37;68.30;102554.66;5018912;28;20175;-74
2021/04/14 04:36:22;;;;;;;7.20;5.43;;;;;;;4.56;67.57;102561.00;5017668;28;20290;-73
2021/04/14 04:38:47;;;;;;;10.27;5.00;;;;;;;4.52;67.70;102565.06;5018077;28;20175;-74
2021/04/14 04:41:13;;;;;;;10.43;5.63;;;;;;;4.52;68.70;102565.06;5019018;28;20222;-73
2021/04/14 04:43:38;;;;;;;8.40;5.10;;;;;;;4.67;68.10;102572.00;5023312;28;20253;-73
2021/04/14 04:46:03;;;;;;;11.93;5.57;;;;;;;4.60;68.40;102568.16;5018225;28;20229;-73
2021/04/14 04:48:29;;;;;;;10.17;5.37;;;;;;;4.63;67.98;102572.63;5018562;28;20173;-72
2021/04/14 04:50:54;;;;;;;18.13;7.10;;;;;;;4.45;69.77;102572.31;5004580;28;20222;-72
2021/04/14 04:53:22;;;;;;;9.80;5.47;;;;;;;4.60;68.77;102572.41;5024770;28;20261;-72
2021/04/14 04:55:48;;;;;;;10.10;5.50;;;;;;;4.95;66.86;102566.88;5016660;28;20245;-72
2021/04/14 04:58:14;;;;;;;10.97;6.60;;;;;;;4.63;68.45;102572.63;4998417;28;20462;-72
2021/04/14 05:00:39;;;;;;;8.43;5.37;;;;;;;4.97;66.79;102567.88;4998223;28;20911;-72
2021/04/14 05:03:06;;;;;;;8.97;5.50;;;;;;;4.91;66.55;102569.16;4998837;28;20487;-72
2021/04/14 05:05:37;;;;;;;9.70;5.47;;;;;;;4.99;66.52;102568.88;4998488;28;20513;-73
2021/04/14 05:08:06;;;;;;;14.30;5.90;;;;;;;4.91;65.95;102564.88;4985897;28;20476;-71
2021/04/14 05:10:32;;;;;;;8.13;4.90;;;;;;;4.75;67.06;102580.22;5017800;28;20417;-73
2021/04/14 05:12:58;;;;;;;13.20;5.33;;;;;;;4.88;66.22;102570.78;5018151;28;20429;-73
2021/04/14 05:15:26;;;;;;;8.27;5.50;;;;;;;5.16;65.83;102571.59;5018467;28;20418;-73
2021/04/14 05:17:52;;;;;;;13.57;4.97;;;;;;;5.33;65.58;102565.75;5017953;28;20476;-73
2021/04/14 05:20:18;;;;;;;11.20;4.80;;;;;;;5.59;64.50;102573.28;5017920;28;20418;-73
2021/04/14 05:22:45;;;;;;;9.57;5.27;;;;;;;6.15;63.31;102572.25;5018292;28;20171;-74
2021/04/14 05:25:11;;;;;;;10.47;5.10;;;;;;;6.37;62.49;102569.19;5017698;28;20863;-73
2021/04/14 05:27:37;;;;;;;7.30;4.90;;;;;;;6.07;62.80;102575.31;5017245;28;20440;-72
2021/04/14 05:30:04;;;;;;;8.07;5.20;;;;;;;6.15;63.11;102574.84;5003234;28;20438;-72
2021/04/14 05:32:30;;;;;;;10.30;5.00;;;;;;;5.80;62.62;102578.84;5014140;28;20421;-72
2021/04/14 05:34:55;;;;;;;11.63;4.80;;;;;;;6.52;60.80;102572.66;5014925;28;20427;-74
2021/04/14 05:37:21;;;;;;;8.17;5.40;;;;;;;6.19;61.86;102582.00;4998437;28;20195;-73
2021/04/14 05:39:46;;;;;;;10.73;4.90;;;;;;;6.22;61.62;102582.16;4997843;28;20180;-73
2021/04/14 05:42:11;;;;;;;9.00;4.63;;;;;;;6.39;60.60;102594.38;4998194;28;20421;-73
2021/04/14 05:44:37;;;;;;;9.07;5.10;;;;;;;6.77;60.55;102592.16;4999082;28;20310;-74
2021/04/14 05:47:02;;;;;;;8.97;4.80;;;;;;;6.79;60.33;102589.63;5000103;28;20168;-75
2021/04/14 05:49:27;;;;;;;11.17;5.23;;;;;;;7.91;56.42;102592.03;5020675;28;20424;-74
2021/04/14 05:51:52;;;;;;;6.60;4.63;;;;;;;7.48;57.58;102593.34;5021453;28;20246;-75
2021/04/14 05:54:18;;;;;;;7.73;4.67;;;;;;;6.82;58.85;102598.47;5021016;28;20551;-73
2021/04/14 05:56:43;;;;;;;6.50;4.90;;;;;;;6.94;58.53;102595.69;5021219;28;20210;-74
2021/04/14 05:59:09;;;;;;;9.40;4.83;;;;;;;7.07;58.40;102592.91;5021608;28;20199;-74
2021/04/14 06:01:36;;;;;;;10.37;4.80;;;;;;;8.83;53.82;102586.97;5021671;28;20723;-74
2021/04/14 06:04:02;;;;;;;6.40;4.60;;;;;;;10.19;49.35;102585.03;5021927;28;20175;-74
2021/04/14 06:06:27;;;;;;;5.50;4.50;;;;;;;11.48;45.53;102583.91;5021790;28;20429;-74
2021/04/14 06:08:53;;;;;;;7.90;4.70;;;;;;;11.78;44.20;102577.97;5021054;28;20174;-74
2021/04/14 06:11:18;;;;;;;5.60;4.30;;;;;;;11.59;43.16;102577.31;5020719;28;20183;-74
2021/04/14 06:13:45;;;;;;;9.33;4.60;;;;;;;12.63;41.97;102579.00;5004033;28;20171;-72
2021/04/14 06:16:10;;;;;;;7.57;4.63;;;;;;;13.41;40.15;102576.94;5020597;28;20186;-73
2021/04/14 06:18:36;;;;;;;7.97;4.10;;;;;;;13.72;38.73;102563.75;5020490;28;20410;-74
2021/04/14 06:21:03;;;;;;;5.87;4.37;;;;;;;14.08;38.44;102573.41;5020820;28;20485;-74
2021/04/14 06:23:29;;;;;;;7.17;4.97;;;;;;;14.73;36.92;102577.56;5018665;28;20205;-75
2021/04/14 06:28:32;;;;;;;4.50;4.07;;;;;;;14.38;37.78;102586.34;5014013;28;20194;-74
2021/04/14 06:30:58;;;;;;;6.53;3.60;;;;;;;14.36;37.52;102574.09;5002248;28;20425;-75
2021/04/14 06:33:24;;;;;;;5.50;3.60;;;;;;;13.77;37.58;102576.16;5005654;28;20207;-75
2021/04/14 06:35:52;;;;;;;7.43;3.87;;;;;;;14.68;36.11;102580.09;5018804;28;20194;-75
2021/04/14 06:38:21;;;;;;;8.40;4.27;;;;;;;15.77;34.47;102578.72;5023838;28;20465;-73
2021/04/14 06:41:19;;;;;;;4.33;3.70;;;;;;;15.83;33.83;102578.88;5020769;28;20708;-73
2021/04/14 06:43:56;;;;;;;7.23;3.40;;;;;;;15.75;34.15;102574.28;5015088;28;20447;-73
2021/04/14 06:46:30;;;;;;;8.43;4.30;;;;;;;15.63;34.02;102572.34;5022938;28;20866;-74
2021/04/14 06:49:02;;;;;;;7.13;4.10;;;;;;;16.00;33.86;102567.75;5008765;28;20417;-74
2021/04/14 06:51:37;;;;;;;5.90;3.73;;;;;;;13.57;37.43;102574.72;5024482;28;20449;-74
2021/04/14 06:54:12;;;;;;;5.80;3.87;;;;;;;12.95;39.38;102580.84;4984702;28;20438;-73
2021/04/14 06:56:38;;;;;;;7.90;4.67;;;;;;;13.23;38.56;102574.69;5004996;28;20459;-73
2021/04/14 06:59:05;;;;;;;8.00;3.53;;;;;;;15.18;34.78;102575.88;5000362;28;20401;-73
2021/04/14 07:01:42;;;;;;;4.73;3.23;;;;;;;16.04;33.42;102571.34;5006342;28;20842;-78
2021/04/14 07:04:17;;;;;;;7.50;4.43;;;;;;;16.41;32.30;102564.91;4993925;28;20411;-70
2021/04/14 07:06:43;;;;;;;5.63;3.50;;;;;;;16.08;32.56;102571.38;5015822;28;20404;-70
2021/04/14 07:09:15;;;;;;;9.47;3.43;;;;;;;15.89;32.76;102566.69;5018400;28;20446;-74
2021/04/14 07:11:41;;;;;;;7.17;3.67;;;;;;;16.02;32.81;102573.03;5013978;28;20473;-75
2021/04/14 07:14:07;;;;;;;4.90;3.97;;;;;;;16.05;32.53;102575.69;5013041;28;20872;-74
2021/04/14 07:16:43;;;;;;;8.57;3.80;;;;;;;16.73;32.01;102566.19;5017723;28;20586;-75
2021/04/14 07:19:28;;;;;;;5.27;3.03;;;;;;;15.31;33.60;102576.13;5014767;28;20441;-75
2021/04/14 07:22:05;;;;;;;8.47;3.40;;;;;;;12.50;38.82;102582.09;5019058;28;20480;-77
2021/04/14 07:24:36;;;;;;;6.90;3.83;;;;;;;11.83;40.86;102580.75;5025206;28;20454;-74
2021/04/14 07:27:11;;;;;;;5.80;3.43;;;;;;;10.87;42.45;102575.59;5034618;28;20422;-75
2021/04/14 07:29:38;;;;;;;5.43;3.33;;;;;;;10.45;43.96;102580.94;5032781;28;20445;-76
2021/04/14 07:32:24;;;;;;;5.17;2.77;;;;;;;9.90;45.18;102583.03;5017561;28;20869;-75
2021/04/14 07:35:11;;;;;;;13.97;7.00;;;;;;;9.69;45.89;102585.59;5020028;28;20459;-75
2021/04/14 07:37:42;;;;;;;5.80;3.57;;;;;;;9.93;46.37;102583.16;5019717;28;20473;-74
2021/04/14 07:40:18;;;;;;;7.37;4.57;;;;;;;10.92;43.85;102571.44;5018643;28;20442;-75
2021/04/14 07:42:57;;;;;;;6.73;3.87;;;;;;;10.89;43.51;102570.44;5037449;28;20431;-71
2021/04/14 07:45:24;;;;;;;5.67;3.23;;;;;;;10.84;44.66;102570.28;5038320;28;20387;-74
2021/04/14 07:47:56;;;;;;;7.83;3.20;;;;;;;10.48;43.89;102568.00;5036957;28;20478;-74
2021/04/14 07:50:31;;;;;;;5.03;3.50;;;;;;;10.56;44.56;102571.81;5031655;28;20481;-74
2021/04/14 07:52:57;;;;;;;5.87;3.40;;;;;;;10.26;45.14;102566.25;5047375;28;20452;-72
2021/04/14 07:55:26;;;;;;;7.37;3.30;;;;;;;10.87;44.34;102569.50;5038497;28;20460;-72
2021/04/14 07:57:51;;;;;;;6.27;4.57;;;;;;;11.35;42.81;102566.03;5038350;28;20475;-73
2021/04/14 08:00:24;;;;;;;6.70;3.67;;;;;;;10.96;44.13;102577.69;5010300;28;20446;-73
2021/04/14 08:02:50;;;;;;;6.87;4.30;;;;;;;12.40;42.35;102564.34;4998192;28;20168;-76
2021/04/14 08:05:27;;;;;;;5.33;3.43;;;;;;;12.15;42.27;102566.19;4998855;28;20473;-75
2021/04/14 08:07:52;;;;;;;6.73;3.10;;;;;;;12.67;40.22;102559.06;5001768;28;20466;-73
2021/04/14 08:10:22;;;;;;;3.70;2.90;;;;;;;11.60;42.20;102573.00;5016835;28;20414;-73
2021/04/14 08:13:01;;;;;;;6.67;3.43;;;;;;;12.83;39.18;102563.03;5014005;28;20203;-77
2021/04/14 08:15:47;;;;;;;4.90;3.67;;;;;;;12.98;38.39;102567.84;5007773;28;20424;-74
2021/04/14 08:18:31;;;;;;;7.17;3.10;;;;;;;14.14;36.31;102563.09;5017451;28;20475;-74
2021/04/14 08:21:13;;;;;;;5.03;3.13;;;;;;;15.87;32.59;102552.63;5018140;28;20917;-74
2021/04/14 08:23:50;;;;;;;7.20;3.33;;;;;;;16.02;32.87;102552.91;5017297;28;20439;-74
2021/04/14 08:26:18;;;;;;;5.17;2.80;;;;;;;14.68;34.90;102551.22;5017545;28;20830;-75
2021/04/14 08:28:48;;;;;;;3.40;2.93;;;;;;;15.30;33.44;102552.44;5017976;28;20396;-75
2021/04/14 08:34:22;;;;;;;10.03;3.10;;;;;;;15.03;34.04;102548.41;4997815;28;20431;-75
2021/04/14 08:37:03;;;;;;;3.97;2.73;;;;;;;16.26;32.12;102552.38;5002926;28;20542;-75
2021/04/14 08:39:39;;;;;;;5.90;3.30;;;;;;;15.95;32.30;102548.38;4997647;28;20418;-74
2021/04/14 08:42:19;;;;;;;3.30;3.00;;;;;;;14.74;35.21;102558.34;5005169;28;20453;-72
2021/04/14 08:44:47;;;;;;;8.90;3.27;;;;;;;14.67;34.39;102559.03;5014865;28;20425;-73
2021/04/14 08:47:26;;;;;;;6.07;3.10;;;;;;;15.48;32.90;102552.81;5017568;28;20440;-71
2021/04/14 08:49:56;;;;;;;6.10;3.13;;;;;;;17.06;29.90;102546.44;5017612;28;20421;-74
2021/04/14 08:52:23;;;;;;;7.43;3.40;;;;;;;17.54;28.92;102546.97;5008901;28;20503;-74
2021/04/14 08:54:50;;;;;;;4.73;3.30;;;;;;;16.20;30.57;102541.75;5037600;28;20743;-75
2021/04/14 08:57:16;;;;;;;6.60;3.30;;;;;;;15.47;31.22;102553.66;5028077;28;20910;-75
2021/04/14 08:59:42;;;;;;;4.87;3.00;;;;;;;15.96;31.06;102547.53;5000153;28;20436;-76
2021/04/14 09:02:09;;;;;;;6.60;4.20;;;;;;;16.04;31.84;102553.78;5016436;28;20575;-71
2021/04/14 09:04:35;;;;;;;3.63;2.60;;;;;;;15.37;31.70;102557.00;5004238;28;20179;-74
2021/04/14 09:07:02;;;;;;;8.10;3.27;;;;;;;14.70;33.32;102554.75;5011878;28;20947;-74
2021/04/14 09:09:29;;;;;;;6.97;3.57;;;;;;;12.83;36.94;102564.75;5005077;28;20860;-74
2021/04/14 09:12:02;;;;;;;5.90;3.30;;;;;;;12.24;37.63;102566.47;5005354;28;20437;-77
2021/04/14 09:14:29;;;;;;;5.23;3.00;;;;;;;14.82;33.17;102543.63;5018404;28;20828;-74
2021/04/14 09:17:18;;;;;;;4.20;3.00;;;;;;;16.56;30.30;102537.00;5019917;28;20476;-75
2021/04/14 09:19:46;;;;;;;3.37;3.00;;;;;;;14.32;32.60;102539.88;5018728;28;20392;-73
2021/04/14 09:22:15;;;;;;;5.97;3.70;;;;;;;13.41;34.36;102549.84;5016364;28;20416;-75
2021/04/14 09:25:02;;;;;;;7.23;3.87;;;;;;;12.64;35.68;102556.38;5011123;28;20480;-74
2021/04/14 09:27:36;;;;;;;8.40;3.83;;;;;;;13.61;33.84;102543.41;5021667;28;20398;-74
2021/04/14 09:30:13;;;;;;;7.53;4.00;;;;;;;15.32;30.13;102548.13;5021276;28;20650;-74
2021/04/14 09:32:48;;;;;;;7.67;3.70;;;;;;;15.01;31.30;102544.03;5019296;28;20679;-76
2021/04/14 09:35:28;;;;;;;6.10;3.10;;;;;;;12.26;34.95;102550.84;5020917;28;20543;-75
2021/04/14 09:38:19;;;;;;;11.40;3.80;;;;;;;12.02;35.70;102553.56;5020462;28;20439;-75
2021/04/14 09:40:45;;;;;;;6.90;4.87;;;;;;;13.16;33.10;102543.91;5020873;28;20499;-73
2021/04/14 09:43:38;;;;;;;6.07;3.60;;;;;;;14.87;31.68;102533.22;5036722;28;20408;-72
2021/04/14 09:46:12;;;;;;;6.10;4.00;;;;;;;16.63;28.06;102523.06;5018876;28;20273;-74
2021/04/14 09:48:46;;;;;;;5.23;3.43;;;;;;;15.56;28.74;102524.03;5018316;28;20437;-76
2021/04/14 09:51:36;;;;;;;3.80;3.30;;;;;;;16.08;28.44;102517.91;4988768;28;20413;-76
2021/04/14 09:54:12;;;;;;;5.33;3.07;;;;;;;15.19;27.39;102520.72;5025318;28;20457;-74
2021/04/14 09:56:42;;;;;;;4.33;2.90;;;;;;;14.48;27.51;102529.75;5022231;28;20469;-74
2021/04/14 09:59:10;;;;;;;3.30;2.87;;;;;;;15.32;28.04;102516.59;5019109;28;20709;-75
2021/04/14 10:01:37;;;;;;;5.10;2.83;;;;;;;16.08;27.30;102518.78;5019315;28;20495;-75
2021/04/14 10:04:05;;;;;;;3.33;3.00;;;;;;;16.15;24.90;102511.84;5019859;28;20413;-77
2021/04/14 10:06:31;;;;;;;4.03;3.07;;;;;;;14.03;30.11;102520.84;5020272;28;20781;-81
2021/04/14 10:09:16;;;;;;;3.90;3.03;;;;;;;13.41;31.86;102516.69;5019604;28;20744;-76
2021/04/14 10:11:42;;;;;;;6.73;3.27;;;;;;;13.15;32.12;102521.16;5001506;28;20415;-76
2021/04/14 10:14:19;;;;;;;5.57;3.03;;;;;;;13.29;31.64;102513.72;5001214;28;20400;-67
2021/04/14 10:16:45;;;;;;;5.40;3.37;;;;;;;14.09;30.60;102526.22;5000409;28;20221;-66
2021/04/14 10:19:26;;;;;;;4.60;2.70;;;;;;;13.97;30.27;102520.69;5008732;28;20749;-68
2021/04/14 10:21:52;;;;;;;3.80;2.90;;;;;;;15.02;28.50;102502.03;5018755;28;20474;-68
2021/04/14 10:24:18;;;;;;;3.63;3.00;;;;;;;14.43;28.43;102515.63;5018777;28;20428;-68
2021/04/14 10:26:55;;;;;;;2.63;2.43;;;;;;;13.26;26.99;102509.28;5008150;28;20199;-66
2021/04/14 10:29:27;;;;;;;4.10;2.80;;;;;;;13.18;27.05;102504.66;5009723;28;20537;-66
2021/04/14 10:31:55;;;;;;;3.47;3.03;;;;;;;13.86;27.93;102501.22;5016728;28;20384;-66
2021/04/14 10:34:23;;;;;;;4.23;2.90;;;;;;;13.46;29.81;102501.97;5002479;28;20488;-67
2021/04/14 10:36:49;;;;;;;7.93;3.40;;;;;;;13.41;31.50;102502.69;5019450;28;20516;-66
2021/04/14 10:39:25;;;;;;;4.47;3.10;;;;;;;13.72;32.30;102498.22;5019457;28;20421;-66
2021/04/14 10:41:50;;;;;;;3.67;2.83;;;;;;;12.78;32.26;102507.03;5018753;28;20205;-68
2021/04/14 10:44:21;;;;;;;4.37;2.90;;;;;;;13.08;32.36;102504.44;4989272;28;20401;-68
2021/04/14 10:46:47;;;;;;;4.97;2.97;;;;;;;12.72;33.44;102502.53;5008805;28;20187;-66
2021/04/14 10:49:25;;;;;;;5.83;3.27;;;;;;;12.33;34.63;102505.72;5018856;28;20416;-68
2021/04/14 10:52:04;;;;;;;4.00;2.90;;;;;;;12.51;34.23;102501.91;5006840;28;20218;-67
2021/04/14 10:54:31;;;;;;;7.13;4.50;;;;;;;12.12;33.27;102506.84;5002379;28;20437;-67
2021/04/14 10:57:02;;;;;;;5.03;3.17;;;;;;;11.78;33.97;102510.03;5017933;28;20444;-66
2021/04/14 10:59:28;;;;;;;5.57;3.00;;;;;;;14.54;29.79;102497.50;5001863;28;20456;-66
2021/04/14 11:01:54;;;;;;;4.43;3.50;;;;;;;14.86;28.84;102490.31;5019289;28;20406;-66
2021/04/14 11:04:38;;;;;;;3.67;2.90;;;;;;;15.97;27.16;102491.44;5017610;28;20803;-66
2021/04/14 11:07:08;;;;;;;5.90;4.17;;;;;;;16.12;26.98;102481.13;5018648;28;20464;-66
2021/04/14 11:09:37;;;;;;;3.73;3.33;;;;;;;15.02;26.90;102481.00;5019485;28;20807;-66
2021/04/14 11:12:06;;;;;;;3.20;2.90;;;;;;;15.53;26.29;102478.41;5018596;28;20460;-67
2021/04/14 11:14:32;;;;;;;5.43;2.70;;;;;;;15.25;26.10;102470.03;5002122;28;20388;-66
2021/04/14 11:16:58;;;;;;;4.40;3.53;;;;;;;14.96;27.22;102468.66;5000106;28;20844;-66
2021/04/14 11:19:24;;;;;;;3.70;2.80;;;;;;;16.16;25.87;102467.13;4998962;28;20419;-66
2021/04/14 11:22:07;;;;;;;4.83;3.00;;;;;;;16.47;25.42;102461.44;4999509;28;20175;-65
2021/04/14 11:24:51;;;;;;;6.87;3.50;;;;;;;15.38;25.64;102469.38;4999486;28;20485;-67
2021/04/14 11:27:28;;;;;;;6.13;4.67;;;;;;;15.53;26.94;102458.25;5012693;28;20499;-66
2021/04/14 11:30:07;;;;;;;6.33;3.80;;;;;;;16.37;25.62;102460.41;5018527;28;20750;-66
2021/04/14 11:32:33;;;;;;;7.53;3.30;;;;;;;16.63;25.70;102458.09;5019152;28;20425;-66
2021/04/14 11:35:05;;;;;;;6.80;3.60;;;;;;;17.12;25.03;102463.06;5017296;28;20421;-66
2021/04/14 11:37:37;;;;;;;6.70;3.07;;;;;;;17.65;23.66;102468.81;5017780;28;20630;-67
2021/04/14 11:40:28;;;;;;;2.80;2.60;;;;;;;18.15;22.85;102457.72;5018621;28;20457;-65